Flight Track Log - Related Links

Times and Time Zones

All times are in EDT time to prevent confusion due to time zone crossing. See the KLM1199 flight status page for this flight to view local times or setup timezone preferences in your user account.

Time Position Orientation Groundspeed Altitude Reporting Facility
EDT Latitude Longitude Course Direction KTS MPH feet Rate Location/Type
Thu 03:46:41 AM 52.3000 4.7580 239° Southwest 24 28  Level FlightAware ADS-B
Thu 03:47:22 AM 52.2980 4.7530 237° Southwest 15 17 44 Level FlightAware ADS-B
Thu 03:47:52 AM 52.2990 4.7500 299° West 18 21 47 Level FlightAware ADS-B
Thu 03:48:20 AM 52.3020 4.7460 321° Northwest 22 25 50 Level FlightAware ADS-B
Thu 03:48:48 AM 52.3030 4.7440 309° West 16 18 52 Level FlightAware ADS-B
Thu 03:49:12 AM 52.3020 4.7410 241° Southwest 19 22 55 Level FlightAware ADS-B
Thu 03:49:40 AM 52.3000 4.7390 211° Southwest 21 24 57 Level FlightAware ADS-B
Thu 03:50:27 AM 52.3000 4.7330 270° West 21 24 60 Level FlightAware ADS-B
Thu 03:50:52 AM 52.3030 4.7330 360° North 24 28 67 Level FlightAware ADS-B
Thu 03:51:07 AM 52.3050 4.7330 360° North 25 29 71 Level FlightAware ADS-B
Thu 03:51:37 AM 52.3080 4.7340 12° North 27 31 73 Level FlightAware ADS-B
Thu 03:52:07 AM 52.3120 4.7340 360° North 27 31 79 Level FlightAware ADS-B
Thu 03:52:32 AM 52.3150 4.7340 360° North 26 30 86 Level FlightAware ADS-B
Thu 03:53:02 AM 52.3190 4.7350 North 25 29 93 Level FlightAware ADS-B
Thu 03:53:27 AM 52.3210 4.7330 329° Northwest 21 24 102 Level FlightAware ADS-B
Thu 03:53:57 AM 52.3240 4.7300 329° Northwest 24 28 112 Level FlightAware ADS-B
Thu 03:54:27 AM 52.3260 4.7270 317° Northwest 25 29 126 Level FlightAware ADS-B
Thu 03:54:42 AM 52.3270 4.7240 299° West 23 26 144 Level FlightAware ADS-B
Thu 03:55:07 AM 52.3290 4.7210 317° Northwest 26 30 155 Level FlightAware ADS-B
Thu 03:55:32 AM 52.3310 4.7170 309° West 21 24 178 Level FlightAware ADS-B
Thu 03:55:42 AM 52.3320 4.7160 329° Northwest 19 22 208 Level FlightAware ADS-B
Thu 03:56:02 AM 52.3300 4.7130 223° Southwest 19 22 224 Level FlightAware ADS-B
Thu 03:56:32 AM 52.3290 4.7110 231° Southwest 16 18 263 Level FlightAware ADS-B
Thu 03:56:57 AM 52.3300 4.7090 309° West 18 21 357 Level FlightAware ADS-B
Thu 03:57:27 AM 52.3400 4.7100 North 120 138 508 Level FlightAware ADS-B
Thu 03:57:56 AM 52.3640 4.7110 North 160 184 500 1,579 Climbing FlightAware ADS-B
Thu 03:58:24 AM 52.3850 4.7140 North 165 190 1,500 2,464 Climbing FlightAware ADS-B
Thu 03:58:52 AM 52.4080 4.7160 North 171 197 2,800 2,344 Climbing FlightAware ADS-B
Thu 03:59:28 AM 52.4390 4.7060 349° North 225 259 4,000 2,125 Climbing FlightAware ADS-B
Thu 03:59:40 AM 52.4500 4.6900 318° Northwest 248 285 4,500 3,150 Climbing FlightAware ADS-B
Thu 04:00:08 AM 52.4730 4.6510 314° West 267 307 6,100 3,682 Climbing FlightAware ADS-B
Thu 04:00:24 AM 52.4860 4.6280 313° West 270 311 7,200 3,955 Climbing FlightAware ADS-B
Thu 04:00:52 AM 52.5120 4.5870 316° Northwest 280 322 9,000 3,600 Climbing FlightAware ADS-B
Thu 04:01:24 AM 52.5480 4.5480 327° Northwest 298 343 10,800 2,286 Climbing FlightAware ADS-B
Thu 04:01:55 AM 52.5884 4.5072 327° Northwest 342 394 11,400 2,348 Climbing FlightAware UK
Thu 04:02:10 AM 52.6010 4.4760 327° Northwest 345 397 12,600 3,927 Climbing FlightAware ADS-B
Thu 04:02:50 AM 52.6400 4.3910 307° West 354 407 15,000 3,325 Climbing FlightAware ADS-B
Thu 04:03:33 AM 52.6830 4.2970 307° West 369 425 17,200 2,892 Climbing FlightAware ADS-B
Thu 04:04:13 AM 52.7250 4.2070 308° West 384 442 19,000 2,854 Climbing FlightAware ADS-B
Thu 04:04:55 AM 52.7734 4.1015 308° West 402 463 21,100 3,000 Climbing FlightAware UK
Thu 04:04:57 AM 52.7750 4.0990 308° West 398 458 21,200 2,651 Climbing FlightAware ADS-B
Thu 04:05:38 AM 52.8200 3.9980 306° West 408 470 23,000 2,526 Climbing FlightAware ADS-B
Thu 04:06:13 AM 52.8617 3.9072 306° West 422 486 24,400 2,400 Climbing FlightAware UK
Thu 04:06:18 AM 52.8660 3.8970 306° West 420 483 24,600 2,195 Climbing FlightAware ADS-B
Thu 04:06:54 AM 52.9080 3.8030 307° West 431 496 25,900 2,025 Climbing FlightAware ADS-B
Thu 04:07:38 AM 52.9620 3.6880 308° West 443 510 27,300 2,000 Climbing FlightAware ADS-B
Thu 04:08:18 AM 53.0300 3.6100 325° Northwest 444 511 28,700 2,026 Climbing FlightAware ADS-B
Thu 04:08:55 AM 53.1033 3.5619 325° Northwest 458 527 29,900 1,909 Climbing FlightAware UK
Thu 04:09:02 AM 53.1140 3.5550 325° Northwest 452 520 30,100 2,129 Climbing FlightAware ADS-B
Thu 04:09:57 AM 53.2220 3.4830 338° Northwest 449 517 32,100 2,242 Climbing FlightAware ADS-B
Thu 04:10:33 AM 53.2910 3.4380 339° North 443 510 33,500 2,049 Climbing FlightAware ADS-B
Thu 04:11:19 AM 53.3835 3.4153 339° North 454 522 34,900 1,800 Climbing FlightAware UK
Thu 04:11:43 AM 53.4250 3.4280 339° North 424 488 35,600 1,714 Climbing FlightAware ADS-B
Thu 04:12:22 AM 53.4970 3.4520 11° North 422 486 36,700 1,643 Climbing FlightAware ADS-B
Thu 04:13:07 AM 53.5860 3.4820 11° North 421 484 37,900 1,326 Climbing FlightAware ADS-B
Thu 04:13:48 AM 53.6650 3.5090 11° North 424 488 38,600 935 Climbing FlightAware ADS-B
Thu 04:14:24 AM 53.7340 3.5330 11° North 427 491 39,100 973 Climbing FlightAware ADS-B
Thu 04:14:25 AM 53.7397 3.5357 11° North 450 518 39,200 837 Climbing FlightAware UK
Thu 04:15:07 AM 53.8214 3.5644 11° North 448 516 39,700 714 Climbing FlightAware UK
Thu 04:15:07 AM 53.8210 3.5630 11° North 435 501 39,700 667 Level FlightAware ADS-B
Thu 04:15:52 AM 53.9090 3.5920 11° North 441 507 40,200 776 Climbing FlightAware ADS-B
Thu 04:16:32 AM 53.9910 3.6210 12° North 441 507 40,800 600 Climbing FlightAware ADS-B
Thu 04:17:12 AM 54.0690 3.6490 12° North 437 503 41,000 141 Climbing FlightAware ADS-B
Thu 04:17:57 AM 54.1590 3.6800 11° North 436 502 41,000  Level FlightAware ADS-B
Thu 04:18:37 AM 54.2360 3.7070 12° North 436 502 41,000  Level FlightAware ADS-B
Thu 04:19:12 AM 54.3060 3.7320 12° North 435 501 41,000  Level FlightAware ADS-B
Thu 04:19:13 AM 54.3113 3.7341 12° North 450 518 41,000  Level FlightAware UK
Thu 04:19:54 AM 54.3740 3.7550 11° North 436 502 41,000  Level FlightAware ADS-B
Thu 04:20:37 AM 54.4771 3.7927 11° North 452 520 41,000  Level FlightAware UK
Thu 04:20:53 AM 54.4750 3.7900 11° North 436 502 41,000  Level FlightAware ADS-B
Thu 04:21:28 AM 54.5740 3.8270 12° North 436 502 41,000  Level FlightAware ADS-B
Thu 04:22:14 AM 54.6590 3.8570 12° North 437 503 41,000  Level FlightAware ADS-B
Thu 04:22:54 AM 54.7420 3.8870 12° North 436 502 41,000  Level FlightAware ADS-B
Thu 04:23:37 AM 54.8190 3.9140 11° North 428 493 41,000  Level FlightAware ADS-B
Thu 04:24:16 AM 54.9060 3.9460 12° North 429 494 41,000  Level FlightAware ADS-B
Thu 04:24:57 AM 54.9820 3.9740 12° North 429 494 41,000  Level FlightAware ADS-B
Thu 04:25:36 AM 55.0640 4.0030 11° North 429 494 41,000  Level FlightAware ADS-B
Thu 04:26:17 AM 55.1330 4.0290 12° North 437 503 41,000  Level FlightAware ADS-B
Thu 04:26:51 AM 55.2100 4.0570 12° North 429 494 41,000  Level FlightAware ADS-B
Thu 04:27:55 AM 55.3421 4.1070 12° North 454 522 41,000  Level FlightAware UK
Thu 04:28:02 AM 55.3460 4.1070 12° North 435 501 41,000  Level FlightAware ADS-B
Thu 04:28:47 AM 55.4300 4.1390 12° North 435 501 41,000  Level FlightAware ADS-B
Thu 04:29:27 AM 55.5090 4.1680 12° North 426 490 41,000  Level FlightAware ADS-B
Thu 04:30:01 AM 55.5896 4.1991 12° North 452 520 41,000  Level FlightAware UK
Thu 04:30:12 AM 55.5990 4.2020 12° North 426 490 41,000  Level FlightAware ADS-B
Thu 04:30:43 AM 55.6720 4.2302 12° North 452 520 41,000  Level FlightAware UK
Thu 04:30:52 AM 55.6770 4.2310 12° North 425 489 41,000  Level FlightAware ADS-B
Thu 04:31:37 AM 55.7670 4.2660 12° North 425 489 41,000  Level FlightAware ADS-B
Thu 04:32:17 AM 55.8470 4.2960 12° North 425 489 41,000  Level FlightAware ADS-B
Thu 04:32:55 AM 55.9301 4.3289 12° North 456 525 41,000  Level FlightAware UK
Thu 04:32:57 AM 55.9270 4.3270 12° North 425 489 41,000  Level FlightAware ADS-B
Thu 04:33:37 AM 56.0123 4.3600 12° North 456 525 41,000  Level FlightAware UK
Thu 04:33:42 AM 56.0090 4.3580 12° North 432 497 41,000  Level FlightAware ADS-B
Thu 04:34:13 AM 56.0826 4.3872 12° North 456 525 41,000  Level FlightAware UK
Thu 04:34:22 AM 56.0860 4.3870 12° North 431 496 41,000  Level FlightAware ADS-B
Thu 04:35:02 AM 56.1640 4.4180 12° North 430 495 41,000  Level FlightAware ADS-B
Thu 04:35:41 AM 56.2510 4.4510 12° North 429 494 41,000  Level FlightAware ADS-B
Thu 04:36:19 AM 56.3230 4.4790 12° North 427 491 41,000  Level FlightAware ADS-B
Thu 04:37:05 AM 56.4130 4.5150 12° North 426 490 41,000  Level FlightAware ADS-B
Thu 04:37:37 AM 56.4778 4.5396 12° North 452 520 41,000  Level FlightAware UK
Thu 04:37:45 AM 56.4880 4.5440 12° North 425 489 41,000  Level FlightAware ADS-B
Thu 04:38:29 AM 56.5750 4.5790 12° North 423 487 41,000  Level FlightAware ADS-B
Thu 04:39:01 AM 56.6387 4.6013 12° North 1 1 41,000  Level FlightAware UK
Thu 04:39:09 AM 56.6520 4.6090 12° North 423 487 41,000  Level FlightAware ADS-B
Thu 04:39:55 AM 56.7390 4.6430 12° North 425 489 41,000  Level FlightAware ADS-B
Thu 04:40:27 AM 56.8000 4.6680 13° North 426 490 41,000  Level FlightAware ADS-B
Thu 04:41:11 AM 56.8850 4.7020 12° North 425 489 41,000  Level FlightAware ADS-B
Thu 04:41:51 AM 56.9620 4.7330 12° North 425 489 41,000  Level FlightAware ADS-B
Thu 04:42:23 AM 57.0230 4.7580 13° North 425 489 41,000 -231 Level FlightAware ADS-B
Thu 04:43:09 AM 57.1110 4.7940 13° North 422 486 40,700 -1,326 Descending FlightAware ADS-B
Thu 04:43:49 AM 57.1880 4.8250 12° North 419 482 39,100 -2,372 Descending FlightAware ADS-B
Thu 04:44:35 AM 57.2740 4.8600 12° North 419 482 37,300 -2,581 Descending FlightAware ADS-B
Thu 04:45:15 AM 57.3490 4.8910 13° North 421 484 35,400 -2,850 Descending FlightAware ADS-B
Thu 04:45:55 AM 57.4260 4.9230 13° North 422 486 33,500 -2,643 Descending FlightAware ADS-B
Thu 04:46:39 AM 57.5090 4.9580 13° North 412 474 31,700 -2,325 Descending FlightAware ADS-B
Thu 04:47:15 AM 57.5750 4.9860 13° North 403 464 30,400 -2,211 Descending FlightAware ADS-B
Thu 04:47:55 AM 57.6470 5.0160 13° North 393 452 28,900 -2,214 Descending FlightAware ADS-B
Thu 04:48:39 AM 57.7240 5.0480 13° North 380 437 27,300 -2,175 Descending FlightAware ADS-B
Thu 04:49:15 AM 57.7850 5.0740 13° North 373 429 26,000 -2,053 Descending FlightAware ADS-B
Thu 04:49:55 AM 57.8510 5.1020 13° North 365 420 24,700 -2,025 Descending FlightAware ADS-B
Thu 04:50:35 AM 57.9160 5.1300 13° North 358 412 23,300 -2,025 Descending FlightAware ADS-B
Thu 04:51:15 AM 57.9800 5.1570 13° North 352 405 22,000 -1,929 Descending FlightAware ADS-B
Thu 04:51:59 AM 58.0490 5.1870 13° North 346 398 20,600 -1,841 Descending FlightAware ADS-B
Thu 04:52:43 AM 58.1170 5.2160 13° North 338 389 19,300 -1,786 Descending FlightAware ADS-B
Thu 04:53:23 AM 58.1780 5.2430 13° North 331 381 18,100 -1,714 Descending FlightAware ADS-B
Thu 04:54:07 AM 58.2440 5.2710 13° North 330 380 16,900 -1,650 Descending FlightAware ADS-B
Thu 04:54:43 AM 58.2970 5.2940 13° North 327 376 15,900 -1,692 Descending FlightAware ADS-B
Thu 04:55:25 AM 58.3570 5.3210 13° North 322 371 14,700 -1,683 Descending FlightAware ADS-B
Thu 04:56:05 AM 58.4170 5.3380 North 315 362 13,600 -1,658 Descending FlightAware ADS-B
Thu 04:56:41 AM 58.4680 5.3470 North 308 354 12,600 -1,658 Descending FlightAware ADS-B
Thu 04:57:21 AM 58.5240 5.3560 North 300 345 11,500 -1,605 Descending FlightAware ADS-B
Thu 04:58:07 AM 58.5870 5.3680 North 291 335 10,300 -1,116 Descending FlightAware ADS-B
Thu 04:58:47 AM 58.6380 5.3770 North 263 303 9,900 -794 Descending FlightAware ADS-B
Thu 04:59:15 AM 58.6710 5.3820 North 264 304 9,400 -1,179 Descending FlightAware ADS-B
Thu 04:59:43 AM 58.7050 5.3880 North 269 310 8,800 -1,350 Descending FlightAware ADS-B
Thu 04:59:55 AM 58.7210 5.3910 North 269 310 8,500 -1,111 Descending FlightAware ADS-B
Thu 05:03:00 AM 58.8767 5.6378 39° Northeast  Level Estimated
Thu 05:03:46 AM 58.9760 5.4360 39° Northeast 231 266 4,300  Level FlightAware ADS-B
Thu 05:04:12 AM 59.0030 5.4460 11° North 225 259 4,100 -638 Descending FlightAware ADS-B
Thu 05:04:33 AM 59.0220 5.4700 33° Northeast 226 260 3,800 -955 Descending FlightAware ADS-B
Thu 05:04:56 AM 59.0430 5.5260 54° Northeast 245 282 3,400 -1,116 Descending FlightAware ADS-B
Thu 05:05:16 AM 59.0370 5.5660 106° East 241 277 3,000 -1,000 Descending FlightAware ADS-B
Thu 05:05:38 AM 59.0280 5.6110 111° Southeast 228 262 2,700 -947 Descending FlightAware ADS-B
Thu 05:05:54 AM 59.0170 5.6340 133° Southeast 208 239 2,400 -938 Descending FlightAware ADS-B
Thu 05:06:10 AM 59.0040 5.6360 175° South 182 209 2,200 -667 Descending FlightAware ADS-B
Thu 05:06:21 AM 58.9940 5.6350 183° South 179 206 2,100 -1,322 Descending FlightAware ADS-B
Thu 05:07:09 AM 58.9520 5.6360 179° South 173 199 900 -1,324 Descending FlightAware ADS-B
Thu 05:07:29 AM 58.9360 5.6360 180° South 153 176 600 -750 Descending FlightAware ADS-B
Thu 05:07:41 AM 58.9280 5.6360 180° South 141 162 500 -632 Descending FlightAware ADS-B
Thu 05:08:07 AM 58.9130 5.6370 178° South 124 143 200 -692 Descending FlightAware ADS-B
Thu 05:08:50 AM 58.8890 5.6380 179° South 124 143 -279 Descending FlightAware ADS-B
Thu 05:09:38 AM 58.8770 5.6380 180° South 13 15  Level FlightAware ADS-B
Thu 05:09:55 AM 58.8770 5.6360 270° West 14 16  Level FlightAware ADS-B
Thu 05:10:23 AM 58.8780 5.6330 303° West 14 16  Level FlightAware ADS-B
Thu 05:10:33 AM 58.8790 5.6330 360° North 14 16  Level FlightAware ADS-B
Thu 05:11:37 AM 58.8810 5.6300 322° Northwest 8 9  Level FlightAware ADS-B
Thu 05:14:00 AM 58.8767 5.6378 137° Southeast  Level Estimated
Thu 05:15:00 AM 58.8767 5.6378 199° South  Level Estimated

Login

Don't have an account? Register now (free) for customized features, flight alerts, and more!